Peary Spirit — C6YM3 — position and weather

sailwx.info

Track history (hours):
 
Tides and Currents Weather Stations Pressure Air Temp Water Temp Dewpoint Dewpoint Depression Visibility Wind Speed Wind Dir Waves Ship Positions

Peary Spirit

Last reported at 2016-Aug-28 13:33 UTC. Time now 2016-Aug-29 03:41 UTC.
Position N 60°09' E 001°42'.

Length 249 m; draft 9.2 m.

Type: Tanker. MMSI: 311027600.

Date/timePositionNaut miles runAvg speedWind from/ knotsBaromVisibWave heightAir tempDewpointWater temp
2016-Aug-28 13:33N 60°09' E 001°42'8 7.9
2016-Aug-28 12:33N 60°05' E 001°28'9 9.4
2016-Aug-28 11:33N 60°01' E 001°11'10 9.7
2016-Aug-28 10:33N 59°57' E 000°53'10 9.8
2016-Aug-28 09:33N 59°52' E 000°36'1010.0
2016-Aug-28 08:32N 59°48' E 000°18'121 7.0
2016-Aug-27 15:07N 59°24' W 003°37'5 8.0
2016-Aug-27 14:33N 59°22' W 003°45'8 8.0
2016-Aug-27 13:33N 59°18' W 003°59'8 8.0
2016-Aug-27 12:33N 59°15' W 004°13'7 6.5
2016-Aug-27 11:33N 59°11' W 004°24'222 8.5
2016-Aug-26 09:32N 55°44' W 006°52'1211.8
2016-Aug-26 08:33N 55°35' W 006°38'1211.9
2016-Aug-26 07:33N 55°29' W 006°21'1111.1
2016-Aug-26 06:33N 55°24' W 006°03'2210.8
2016-Aug-26 04:33N 55°07' W 005°40'9 9.4
2016-Aug-26 03:33N 54°59' W 005°31'9 8.6
2016-Aug-26 02:33N 54°52' W 005°23'8 8.1
2016-Aug-26 01:33N 54°46' W 005°14'8 8.3
2016-Aug-26 00:33N 54°38' W 005°07'9 9.1
2016-Aug-25 23:33N 54°29' W 005°04'9 9.4
2016-Aug-25 22:33N 54°20' W 005°02'10 9.9
2016-Aug-25 21:33N 54°10' W 005°00'1010.1
2016-Aug-25 20:33N 54°00' W 004°58'1010.3
2016-Aug-25 19:33N 53°54' W 004°45'1010.4
2016-Aug-25 18:33N 53°48' W 004°30'10 9.9
2016-Aug-25 17:33N 53°43' W 004°16'9 9.1
2016-Aug-25 16:33N 53°38' W 004°02'1211.8
2016-Aug-25 15:33N 53°34' W 003°44'1313.0
2016-Aug-25 14:33N 53°33' W 003°22'1010.5
2016-Aug-25 13:33N 53°30' W 003°05'8 7.7
2016-Aug-25 12:33N 53°23' W 002°60'0 0.0
2016-Aug-25 11:33N 53°23' W 002°60'0 0.0
2016-Aug-25 10:33N 53°23' W 002°60'0 0.0
2016-Aug-25 09:33N 53°23' W 002°60'0 0.0
2016-Aug-25 08:33N 53°23' W 002°60'0 0.0
2016-Aug-25 07:33N 53°23' W 002°60'0 0.0
2016-Aug-25 06:33N 53°23' W 002°60'0 0.0
2016-Aug-25 04:30N 53°23' W 002°60'0 0.0
2016-Aug-25 03:33N 53°23' W 002°60'0 0.0
2016-Aug-25 02:33N 53°23' W 002°60'0 0.0
2016-Aug-25 01:33N 53°23' W 002°60'0 0.0
2016-Aug-25 00:33N 53°23' W 002°60'0 0.0
2016-Aug-24 23:33N 53°23' W 002°60'0 0.0
2016-Aug-24 22:33N 53°23' W 002°60'0 0.0
2016-Aug-24 21:27N 53°23' W 002°60'0 0.0
2016-Aug-24 20:33N 53°23' W 002°60'0 0.0
2016-Aug-24 19:33N 53°23' W 002°60'0 0.0
2016-Aug-24 18:33N 53°23' W 002°60'0 0.0
2016-Aug-24 17:30N 53°23' W 002°60'0 0.0
2016-Aug-24 16:33N 53°23' W 002°60'0 0.0
2016-Aug-24 15:33N 53°23' W 002°60'0 0.0
2016-Aug-24 14:33N 53°23' W 002°60'0 0.0
2016-Aug-24 13:21N 53°23' W 002°60'0 0.0
2016-Aug-24 12:33N 53°23' W 002°60'0 0.0
2016-Aug-24 11:33N 53°23' W 002°60'0 0.0
2016-Aug-24 10:33N 53°23' W 002°60'0 0.0
2016-Aug-24 08:33N 53°23' W 002°60'0 0.0
2016-Aug-24 07:33N 53°23' W 002°60'0 0.0
2016-Aug-24 06:30N 53°23' W 002°60'0 0.0
2016-Aug-24 04:24N 53°23' W 002°60'0 0.0
2016-Aug-24 03:33N 53°23' W 002°60'1 1.3
2016-Aug-24 02:33N 53°24' W 003°00'7 7.3
2016-Aug-24 01:33N 53°30' W 003°06'9 8.6
2016-Aug-24 00:33N 53°32' W 003°21'1010.2
2016-Aug-23 23:33N 53°31' W 003°37'1010.2
2016-Aug-23 22:33N 53°30' W 003°54'1010.2
2016-Aug-23 21:33N 53°28' W 004°11'6 5.9
2016-Aug-23 20:33N 53°29' W 004°21'1211.9
2016-Aug-23 19:33N 53°36' W 004°37'1613.1
2016-Aug-23 18:21N 53°46' W 004°57'1312.4
2016-Aug-23 17:17N 53°59' W 005°05'1412.9
2016-Aug-23 16:10N 54°13' W 005°05'812.2
2016-Aug-23 15:33N 54°21' W 005°05'1211.6
2016-Aug-23 14:33N 54°32' W 005°05'1110.7
2016-Aug-23 13:33N 54°41' W 005°14'1110.9
2016-Aug-23 12:33N 54°50' W 005°26'1111.2
2016-Aug-23 11:33N 54°59' W 005°38'1111.5
2016-Aug-23 10:33N 55°08' W 005°50'1312.8
2016-Aug-23 09:33N 55°18' W 006°03'1111.2
2016-Aug-23 08:33N 55°24' W 006°20'1313.5
2016-Aug-23 07:33N 55°33' W 006°39'1212.2
2016-Aug-23 06:33N 55°43' W 006°51'1211.7
2016-Aug-23 05:33N 55°52' W 007°03'21710.4
2016-Aug-22 08:33N 59°18' W 004°54'10 9.4
2016-Aug-22 07:29N 59°26' W 004°43'  
Track history (hours):
 
Tides and Currents Weather Stations Pressure Air Temp Water Temp Dewpoint Dewpoint Depression Visibility Wind Speed Wind Dir Waves Ship Positions

Peary Spirit

Last reported at 2016-Aug-28 13:33 UTC. Time now 2016-Aug-29 03:41 UTC.
Position N 60°09' E 001°42'.

Length 249 m; draft 9.2 m.

Type: Tanker. MMSI: 311027600.

Date/timePositionNaut miles runAvg speedWind from/ knotsBaromVisibWave heightAir tempDewpointWater temp
2016-Aug-28 13:33N 60°09' E 001°42'8 7.9
2016-Aug-28 12:33N 60°05' E 001°28'9 9.4
2016-Aug-28 11:33N 60°01' E 001°11'10 9.7
2016-Aug-28 10:33N 59°57' E 000°53'10 9.8
2016-Aug-28 09:33N 59°52' E 000°36'1010.0
2016-Aug-28 08:32N 59°48' E 000°18'121 7.0
2016-Aug-27 15:07N 59°24' W 003°37'5 8.0
2016-Aug-27 14:33N 59°22' W 003°45'8 8.0
2016-Aug-27 13:33N 59°18' W 003°59'8 8.0
2016-Aug-27 12:33N 59°15' W 004°13'7 6.5
2016-Aug-27 11:33N 59°11' W 004°24'222 8.5
2016-Aug-26 09:32N 55°44' W 006°52'1211.8
2016-Aug-26 08:33N 55°35' W 006°38'1211.9
2016-Aug-26 07:33N 55°29' W 006°21'1111.1
2016-Aug-26 06:33N 55°24' W 006°03'2210.8
2016-Aug-26 04:33N 55°07' W 005°40'9 9.4
2016-Aug-26 03:33N 54°59' W 005°31'9 8.6
2016-Aug-26 02:33N 54°52' W 005°23'8 8.1
2016-Aug-26 01:33N 54°46' W 005°14'8 8.3
2016-Aug-26 00:33N 54°38' W 005°07'9 9.1
2016-Aug-25 23:33N 54°29' W 005°04'9 9.4
2016-Aug-25 22:33N 54°20' W 005°02'10 9.9
2016-Aug-25 21:33N 54°10' W 005°00'1010.1
2016-Aug-25 20:33N 54°00' W 004°58'1010.3
2016-Aug-25 19:33N 53°54' W 004°45'1010.4
2016-Aug-25 18:33N 53°48' W 004°30'10 9.9
2016-Aug-25 17:33N 53°43' W 004°16'9 9.1
2016-Aug-25 16:33N 53°38' W 004°02'1211.8
2016-Aug-25 15:33N 53°34' W 003°44'1313.0
2016-Aug-25 14:33N 53°33' W 003°22'1010.5
2016-Aug-25 13:33N 53°30' W 003°05'8 7.7
2016-Aug-25 12:33N 53°23' W 002°60'0 0.0
2016-Aug-25 11:33N 53°23' W 002°60'0 0.0
2016-Aug-25 10:33N 53°23' W 002°60'0 0.0
2016-Aug-25 09:33N 53°23' W 002°60'0 0.0
2016-Aug-25 08:33N 53°23' W 002°60'0 0.0
2016-Aug-25 07:33N 53°23' W 002°60'0 0.0
2016-Aug-25 06:33N 53°23' W 002°60'0 0.0
2016-Aug-25 04:30N 53°23' W 002°60'0 0.0
2016-Aug-25 03:33N 53°23' W 002°60'0 0.0
2016-Aug-25 02:33N 53°23' W 002°60'0 0.0
2016-Aug-25 01:33N 53°23' W 002°60'0 0.0
2016-Aug-25 00:33N 53°23' W 002°60'0 0.0
2016-Aug-24 23:33N 53°23' W 002°60'0 0.0
2016-Aug-24 22:33N 53°23' W 002°60'0 0.0
2016-Aug-24 21:27N 53°23' W 002°60'0 0.0
2016-Aug-24 20:33N 53°23' W 002°60'0 0.0
2016-Aug-24 19:33N 53°23' W 002°60'0 0.0
2016-Aug-24 18:33N 53°23' W 002°60'0 0.0
2016-Aug-24 17:30N 53°23' W 002°60'0 0.0
2016-Aug-24 16:33N 53°23' W 002°60'0 0.0
2016-Aug-24 15:33N 53°23' W 002°60'0 0.0
2016-Aug-24 14:33N 53°23' W 002°60'0 0.0
2016-Aug-24 13:21N 53°23' W 002°60'0 0.0
2016-Aug-24 12:33N 53°23' W 002°60'0 0.0
2016-Aug-24 11:33N 53°23' W 002°60'0 0.0
2016-Aug-24 10:33N 53°23' W 002°60'0 0.0
2016-Aug-24 08:33N 53°23' W 002°60'0 0.0
2016-Aug-24 07:33N 53°23' W 002°60'0 0.0
2016-Aug-24 06:30N 53°23' W 002°60'0 0.0
2016-Aug-24 04:24N 53°23' W 002°60'0 0.0
2016-Aug-24 03:33N 53°23' W 002°60'1 1.3
2016-Aug-24 02:33N 53°24' W 003°00'7 7.3
2016-Aug-24 01:33N 53°30' W 003°06'9 8.6
2016-Aug-24 00:33N 53°32' W 003°21'1010.2
2016-Aug-23 23:33N 53°31' W 003°37'1010.2
2016-Aug-23 22:33N 53°30' W 003°54'1010.2
2016-Aug-23 21:33N 53°28' W 004°11'6 5.9
2016-Aug-23 20:33N 53°29' W 004°21'1211.9
2016-Aug-23 19:33N 53°36' W 004°37'1613.1
2016-Aug-23 18:21N 53°46' W 004°57'1312.4
2016-Aug-23 17:17N 53°59' W 005°05'1412.9
2016-Aug-23 16:10N 54°13' W 005°05'812.2
2016-Aug-23 15:33N 54°21' W 005°05'1211.6
2016-Aug-23 14:33N 54°32' W 005°05'1110.7
2016-Aug-23 13:33N 54°41' W 005°14'1110.9
2016-Aug-23 12:33N 54°50' W 005°26'1111.2
2016-Aug-23 11:33N 54°59' W 005°38'1111.5
2016-Aug-23 10:33N 55°08' W 005°50'1312.8
2016-Aug-23 09:33N 55°18' W 006°03'1111.2
2016-Aug-23 08:33N 55°24' W 006°20'1313.5
2016-Aug-23 07:33N 55°33' W 006°39'1212.2
2016-Aug-23 06:33N 55°43' W 006°51'1211.7
2016-Aug-23 05:33N 55°52' W 007°03'21710.4
2016-Aug-22 08:33N 59°18' W 004°54'10 9.4
2016-Aug-22 07:29N 59°26' W 004°43'  

Dump ship's entire track history